createdAt,value
2019-02-21T00:02:25.831Z,27.80
2019-02-21T00:04:55.284Z,27.83
2019-02-21T00:07:24.524Z,27.77
2019-02-21T00:09:54.036Z,28.53
2019-02-21T00:12:23.365Z,27.20
2019-02-21T00:14:52.802Z,27.20
2019-02-21T00:17:22.344Z,27.80
2019-02-21T00:19:51.646Z,28.20
2019-02-21T00:22:21.158Z,28.57
2019-02-21T00:24:50.517Z,29.60
2019-02-21T00:27:19.822Z,26.73
2019-02-21T00:29:49.335Z,28.97
2019-02-21T00:32:19.562Z,28.33
2019-02-21T00:34:49.029Z,27.90
2019-02-21T00:37:18.385Z,27.90
2019-02-21T00:39:47.778Z,28.90
2019-02-21T00:42:17.176Z,29.07
2019-02-21T00:44:47.068Z,27.00
2019-02-21T00:47:16.414Z,27.87
2019-02-21T00:49:45.965Z,28.20
2019-02-21T00:52:15.602Z,28.20
2019-02-21T00:54:45.049Z,28.77
2019-02-21T00:57:14.439Z,28.00
2019-02-21T00:59:45.354Z,28.53
2019-02-21T01:02:14.667Z,28.03
2019-02-21T01:04:44.423Z,28.80
2019-02-21T01:07:13.723Z,28.57
2019-02-21T01:09:46.270Z,28.70
2019-02-21T01:12:15.554Z,28.03
2019-02-21T01:14:44.970Z,28.97
2019-02-21T01:17:14.591Z,28.87
2019-02-21T01:19:44.049Z,28.30
2019-02-21T01:22:13.507Z,27.87
2019-02-21T01:24:42.790Z,28.60
2019-02-21T01:27:12.347Z,29.93
2019-02-21T01:29:41.629Z,29.77
2019-02-21T01:32:11.997Z,29.97
2019-02-21T01:34:41.517Z,31.50
2019-02-21T01:37:11.042Z,31.87
2019-02-21T01:39:40.274Z,30.43
2019-02-21T01:42:09.811Z,34.97
2019-02-21T01:44:40.016Z,35.07
2019-02-21T01:47:09.534Z,30.70
2019-02-21T01:49:39.489Z,30.90
2019-02-21T01:52:10.232Z,30.70
2019-02-21T01:54:39.664Z,30.03
2019-02-21T01:57:09.214Z,31.47
2019-02-21T01:59:40.612Z,32.33
2019-02-21T02:02:09.986Z,31.93
2019-02-21T02:04:39.359Z,31.27
2019-02-21T02:07:10.162Z,30.60
2019-02-21T02:09:41.797Z,30.07
2019-02-21T02:12:13.574Z,30.97
2019-02-21T02:14:53.078Z,30.13
2019-02-21T02:17:22.515Z,30.47
2019-02-21T02:19:51.781Z,29.37
2019-02-21T02:22:21.183Z,29.97
2019-02-21T02:24:52.023Z,30.00
2019-02-21T02:27:21.424Z,30.00
2019-02-21T02:29:50.883Z,30.13
2019-02-21T02:32:20.484Z,30.63
2019-02-21T02:34:49.783Z,29.80
2019-02-21T02:37:19.332Z,29.57
2019-02-21T02:39:51.353Z,29.90
2019-02-21T02:42:21.753Z,27.20
2019-02-21T02:44:51.112Z,29.40
2019-02-21T02:47:20.591Z,29.47
2019-02-21T02:49:50.050Z,28.43
2019-02-21T02:52:19.549Z,27.97
2019-02-21T02:54:48.950Z,27.63
2019-02-21T02:57:19.497Z,29.70
2019-02-21T02:59:48.984Z,28.60
2019-02-21T03:02:18.518Z,29.60
2019-02-21T03:04:47.860Z,29.80
2019-02-21T03:07:17.529Z,28.83
2019-02-21T03:09:46.819Z,29.13
2019-02-21T03:12:16.270Z,29.77
2019-02-21T03:14:45.552Z,29.23
2019-02-21T03:17:14.866Z,30.17
2019-02-21T03:19:44.617Z,28.93
2019-02-21T03:22:14.112Z,29.47
2019-02-21T03:24:43.473Z,29.23
2019-02-21T03:27:12.842Z,31.77
2019-02-21T03:29:42.317Z,31.17
2019-02-21T03:32:11.589Z,31.47
2019-02-21T03:34:40.932Z,32.00
2019-02-21T03:37:10.287Z,30.60
2019-02-21T03:39:39.705Z,32.30
2019-02-21T03:42:09.283Z,31.90
2019-02-21T03:44:39.751Z,32.43
2019-02-21T03:47:09.066Z,33.17
2019-02-21T03:49:38.445Z,33.80
2019-02-21T03:52:07.721Z,32.83
2019-02-21T03:54:37.351Z,31.77
2019-02-21T03:57:06.944Z,31.77
2019-02-21T03:59:37.391Z,33.80
2019-02-21T04:02:06.786Z,32.27
2019-02-21T04:04:36.175Z,33.23
2019-02-21T04:07:05.554Z,32.47
2019-02-21T04:09:35.160Z,32.87
2019-02-21T04:12:04.459Z,32.80
2019-02-21T04:14:34.252Z,30.90
2019-02-21T04:17:03.554Z,33.07
2019-02-21T04:19:32.809Z,31.87
2019-02-21T04:22:02.257Z,33.43
2019-02-21T04:24:31.538Z,34.27
2019-02-21T04:27:02.723Z,33.13
2019-02-21T04:29:33.958Z,33.23
2019-02-21T04:32:03.386Z,32.10
2019-02-21T04:34:32.709Z,34.53
2019-02-21T04:37:02.216Z,35.60
2019-02-21T04:39:31.448Z,33.50
2019-02-21T04:42:00.935Z,34.07
2019-02-21T04:44:30.241Z,33.60
2019-02-21T04:46:59.701Z,34.60
2019-02-21T04:49:29.040Z,33.67
2019-02-21T04:51:58.340Z,35.17
2019-02-21T04:54:27.796Z,34.17
2019-02-21T04:56:57.185Z,35.77
2019-02-21T04:59:26.977Z,36.13
2019-02-21T05:01:56.307Z,34.50
2019-02-21T05:04:25.748Z,36.17
2019-02-21T05:06:55.113Z,38.57
2019-02-21T05:09:26.973Z,39.00
2019-02-21T05:11:55.601Z,36.83
2019-02-21T05:14:25.084Z,36.77
2019-02-21T05:16:54.468Z,37.20
2019-02-21T05:19:23.766Z,37.70
2019-02-21T05:21:53.125Z,37.50
2019-02-21T05:24:22.562Z,36.10
2019-02-21T05:26:55.711Z,36.53
2019-02-21T05:29:25.031Z,37.20
2019-02-21T05:32:14.528Z,38.80
2019-02-21T05:34:49.268Z,36.87
2019-02-21T05:37:43.117Z,37.63
2019-02-21T05:40:31.382Z,38.23
2019-02-21T05:43:21.652Z,38.57
2019-02-21T05:46:05.712Z,37.97
2019-02-21T05:49:00.102Z,37.97
2019-02-21T05:51:37.603Z,37.97
2019-02-21T05:54:15.585Z,40.53
2019-02-21T05:56:52.573Z,40.73
2019-02-21T05:59:41.949Z,39.80
2019-02-21T06:02:17.782Z,40.47
2019-02-21T06:04:57.740Z,40.30
2019-02-21T06:07:32.918Z,39.73
2019-02-21T06:10:37.244Z,39.20
2019-02-21T06:13:25.721Z,38.73
2019-02-21T06:16:14.205Z,40.20
2019-02-21T06:19:11.332Z,39.17
2019-02-21T06:22:12.057Z,37.80
2019-02-21T06:24:47.599Z,38.77
2019-02-21T06:27:48.835Z,38.93
2019-02-21T06:30:25.592Z,39.53
2019-02-21T06:33:04.498Z,39.10
2019-02-21T06:35:25.856Z,40.33
2019-02-21T06:37:55.380Z,41.63
2019-02-21T06:40:24.781Z,38.60
2019-02-21T06:42:54.825Z,40.60
2019-02-21T06:45:24.390Z,39.90
2019-02-21T06:47:53.705Z,39.63
2019-02-21T06:50:26.705Z,38.90
2019-02-21T06:52:54.219Z,40.73
2019-02-21T06:55:25.616Z,39.30
2019-02-21T06:57:55.278Z,40.00
2019-02-21T07:00:24.717Z,39.93
2019-02-21T07:02:54.481Z,38.53
2019-02-21T07:05:24.020Z,38.80
2019-02-21T07:07:53.410Z,39.43
2019-02-21T07:10:23.204Z,38.03
2019-02-21T07:12:52.497Z,37.63
2019-02-21T07:15:22.869Z,37.77
2019-02-21T07:17:52.447Z,38.43
2019-02-21T07:20:23.769Z,37.63
2019-02-21T07:22:53.148Z,36.70
2019-02-21T07:25:32.585Z,35.47
2019-02-21T07:28:11.371Z,38.40
2019-02-21T07:30:35.504Z,36.37
2019-02-21T07:33:28.442Z,36.67
2019-02-21T07:35:51.089Z,37.50
2019-02-21T07:38:20.478Z,35.83
2019-02-21T07:40:50.291Z,36.37
2019-02-21T07:43:20.642Z,38.43
2019-02-21T07:45:50.286Z,34.83
2019-02-21T07:48:19.553Z,39.80
2019-02-21T07:50:49.106Z,39.40
2019-02-21T07:53:18.382Z,36.77
2019-02-21T07:55:47.839Z,35.20
2019-02-21T07:58:17.210Z,36.13
2019-02-21T08:00:47.725Z,35.70
2019-02-21T08:03:29.476Z,36.27
2019-02-21T08:05:48.385Z,38.10
2019-02-21T08:08:25.472Z,35.63
2019-02-21T08:10:54.900Z,33.67
2019-02-21T08:13:24.564Z,34.37
2019-02-21T08:15:54.167Z,34.70
2019-02-21T08:18:23.513Z,34.57
2019-02-21T08:20:53.138Z,34.20
2019-02-21T08:23:22.464Z,35.17
2019-02-21T08:25:51.973Z,34.97
2019-02-21T08:28:21.283Z,33.10
2019-02-21T08:30:50.886Z,35.77
2019-02-21T08:33:57.631Z,34.20
2019-02-21T08:36:17.056Z,32.00
2019-02-21T08:38:46.721Z,34.07
2019-02-21T08:41:16.214Z,32.87
2019-02-21T08:43:45.489Z,34.37
2019-02-21T08:46:14.942Z,32.10
2019-02-21T08:48:47.935Z,32.70
2019-02-21T08:51:18.511Z,31.47
2019-02-21T08:53:48.490Z,33.77
2019-02-21T08:56:17.920Z,31.17
2019-02-21T08:58:47.189Z,29.77
2019-02-21T09:01:19.258Z,29.83
2019-02-21T09:03:48.539Z,31.57
2019-02-21T09:06:17.945Z,30.90
2019-02-21T09:08:49.606Z,30.00
2019-02-21T09:11:19.840Z,32.08
2019-02-21T09:13:49.317Z,30.30
2019-02-21T09:16:18.854Z,32.28
2019-02-21T09:18:50.104Z,30.32
2019-02-21T09:21:19.472Z,29.12
2019-02-21T09:23:48.811Z,29.95
2019-02-21T09:26:18.419Z,31.35
2019-02-21T09:28:48.904Z,28.32
2019-02-21T09:31:18.386Z,27.77
2019-02-21T09:33:47.771Z,26.62
2019-02-21T09:36:17.119Z,26.12
2019-02-21T09:38:47.003Z,28.20
2019-02-21T09:41:16.532Z,27.87
2019-02-21T09:43:45.796Z,27.93
2019-02-21T09:46:15.186Z,28.05
2019-02-21T09:48:44.469Z,27.22
2019-02-21T09:51:14.361Z,27.20
2019-02-21T09:53:43.803Z,27.48
2019-02-21T09:56:13.103Z,26.57
2019-02-21T09:58:46.074Z,26.62
2019-02-21T10:01:20.667Z,26.52
2019-02-21T10:03:50.583Z,29.30
2019-02-21T10:06:20.157Z,25.25
2019-02-21T10:08:50.242Z,25.40
2019-02-21T10:11:19.649Z,24.90
2019-02-21T10:13:51.857Z,24.92
2019-02-21T10:16:21.258Z,25.52
2019-02-21T10:18:50.680Z,25.97
2019-02-21T10:21:20.439Z,25.02
2019-02-21T10:23:49.984Z,25.32
2019-02-21T10:26:19.290Z,27.48
2019-02-21T10:28:48.890Z,27.60
2019-02-21T10:31:18.356Z,28.60
2019-02-21T10:33:47.617Z,30.00
2019-02-21T10:36:17.095Z,28.73
2019-02-21T10:38:46.671Z,28.62
2019-02-21T10:41:16.019Z,27.50
2019-02-21T10:43:47.903Z,29.67
2019-02-21T10:46:18.803Z,27.30
2019-02-21T10:48:48.999Z,27.13
2019-02-21T10:51:20.733Z,29.37
2019-02-21T10:53:50.005Z,27.82
2019-02-21T10:56:19.453Z,27.05
2019-02-21T10:58:48.790Z,28.20
2019-02-21T11:01:18.481Z,28.33
2019-02-21T11:03:49.266Z,27.90
2019-02-21T11:06:18.733Z,27.87
2019-02-21T11:08:48.016Z,28.85
2019-02-21T11:11:17.574Z,27.13
2019-02-21T11:13:47.815Z,28.67
2019-02-21T11:16:19.897Z,27.37
2019-02-21T11:18:49.218Z,24.90
2019-02-21T11:21:18.809Z,23.95
2019-02-21T11:23:48.174Z,23.85
2019-02-21T11:26:17.558Z,24.47
2019-02-21T11:28:47.355Z,26.73
2019-02-21T11:31:16.738Z,25.50
2019-02-21T11:33:46.281Z,24.47
2019-02-21T11:36:15.841Z,26.35
2019-02-21T11:38:47.137Z,26.48
2019-02-21T11:41:16.495Z,25.88
2019-02-21T11:43:47.125Z,26.75
2019-02-21T11:46:19.777Z,23.57
2019-02-21T11:48:49.042Z,26.50
2019-02-21T11:51:18.949Z,24.35
2019-02-21T11:53:48.309Z,24.47
2019-02-21T11:56:17.684Z,24.25
2019-02-21T11:58:46.952Z,24.53
2019-02-21T12:01:16.423Z,24.50
2019-02-21T12:03:46.044Z,24.00
2019-02-21T12:06:15.309Z,23.97
2019-02-21T12:08:44.889Z,24.72
2019-02-21T12:11:14.543Z,25.33
2019-02-21T12:13:44.021Z,23.33
2019-02-21T12:16:13.354Z,25.50
2019-02-21T12:18:43.423Z,23.57
2019-02-21T12:21:15.649Z,23.03
2019-02-21T12:23:45.287Z,22.90
2019-02-21T12:26:14.891Z,21.53
2019-02-21T12:28:44.295Z,22.03
2019-02-21T12:31:13.659Z,21.03
2019-02-21T12:33:43.854Z,21.87
2019-02-21T12:36:20.013Z,20.43
2019-02-21T12:39:00.736Z,20.37
2019-02-21T12:41:30.157Z,20.93
2019-02-21T12:44:01.522Z,19.27
2019-02-21T12:46:41.155Z,19.60
2019-02-21T12:49:14.449Z,19.50
2019-02-21T12:51:46.075Z,19.20
2019-02-21T12:54:15.390Z,19.73
2019-02-21T12:56:44.823Z,18.53
2019-02-21T12:59:16.450Z,19.67
2019-02-21T13:01:48.116Z,18.87
2019-02-21T13:04:19.103Z,16.27
2019-02-21T13:06:48.717Z,17.27
2019-02-21T13:09:18.548Z,17.17
2019-02-21T13:11:48.049Z,17.13
2019-02-21T13:14:17.432Z,16.33
2019-02-21T13:16:47.482Z,16.40
2019-02-21T13:19:16.947Z,15.60
2019-02-21T13:21:47.146Z,14.93
2019-02-21T13:24:20.644Z,15.23
2019-02-21T13:26:51.295Z,15.07
2019-02-21T13:29:20.716Z,14.50
2019-02-21T13:31:51.218Z,14.53
2019-02-21T13:34:23.649Z,14.70
2019-02-21T13:37:06.414Z,14.33
2019-02-21T13:39:36.840Z,14.53
2019-02-21T13:42:06.972Z,13.87
2019-02-21T13:44:38.524Z,14.63
2019-02-21T13:47:12.358Z,15.03
2019-02-21T13:49:42.004Z,15.40
2019-02-21T13:52:12.426Z,15.67
2019-02-21T13:54:42.119Z,16.13
2019-02-21T13:57:14.873Z,16.70
2019-02-21T13:59:45.846Z,17.33
2019-02-21T14:02:15.766Z,16.83
2019-02-21T14:04:45.583Z,16.50
2019-02-21T14:07:16.886Z,17.97
2019-02-21T14:09:46.254Z,17.03
2019-02-21T14:12:16.370Z,17.63
2019-02-21T14:14:46.736Z,17.93
2019-02-21T14:17:16.106Z,18.03
2019-02-21T14:19:53.067Z,17.63
2019-02-21T14:22:22.717Z,18.23
2019-02-21T14:24:52.642Z,17.90
2019-02-21T14:27:22.030Z,16.70
2019-02-21T14:29:56.248Z,17.63
2019-02-21T14:32:27.138Z,18.03
2019-02-21T14:34:58.510Z,16.87
2019-02-21T14:37:29.483Z,18.93
2019-02-21T14:40:09.561Z,17.37
2019-02-21T14:42:39.090Z,16.33
2019-02-21T14:45:12.308Z,17.67
2019-02-21T14:47:42.481Z,16.70
2019-02-21T14:50:18.080Z,16.63
2019-02-21T14:52:50.314Z,16.33
2019-02-21T14:55:20.843Z,16.07
2019-02-21T14:57:52.930Z,16.40
2019-02-21T15:00:26.455Z,16.30
2019-02-21T15:02:59.354Z,16.27
2019-02-21T15:05:39.051Z,15.47
2019-02-21T15:08:08.795Z,16.57
2019-02-21T15:10:40.590Z,14.90
2019-02-21T15:13:14.550Z,15.47
2019-02-21T15:15:41.853Z,15.10
2019-02-21T15:18:11.449Z,15.77
2019-02-21T15:20:43.619Z,15.67
2019-02-21T15:23:13.893Z,15.03
2019-02-21T15:25:43.382Z,14.90
2019-02-21T15:28:12.641Z,15.13
2019-02-21T15:30:43.135Z,16.40
2019-02-21T15:33:13.321Z,16.97
2019-02-21T15:35:43.149Z,18.03
2019-02-21T15:38:20.027Z,17.07
2019-02-21T15:40:49.730Z,17.87
2019-02-21T15:43:20.434Z,17.73
2019-02-21T15:45:49.893Z,18.83
2019-02-21T15:48:20.150Z,18.73
2019-02-21T15:50:50.434Z,18.73
2019-02-21T15:53:19.929Z,19.33
2019-02-21T15:55:49.205Z,18.20
2019-02-21T15:58:19.476Z,18.00
2019-02-21T16:00:51.476Z,18.47
2019-02-21T16:03:21.505Z,18.43
2019-02-21T16:05:51.014Z,18.73
2019-02-21T16:08:20.311Z,18.50
2019-02-21T16:10:50.391Z,17.87
2019-02-21T16:13:24.881Z,17.10
2019-02-21T16:15:55.077Z,17.30
2019-02-21T16:18:26.441Z,17.03
2019-02-21T16:20:57.554Z,19.90
2019-02-21T16:23:29.359Z,17.83
2019-02-21T16:25:58.924Z,18.23
2019-02-21T16:28:30.698Z,18.03
2019-02-21T16:31:04.794Z,18.63
2019-02-21T16:33:34.206Z,19.30
2019-02-21T16:36:08.078Z,23.47
2019-02-21T16:38:37.495Z,18.50
2019-02-21T16:41:16.298Z,18.83
2019-02-21T16:43:46.408Z,21.77
2019-02-21T16:46:30.090Z,20.17
2019-02-21T16:48:59.744Z,18.53
2019-02-21T16:51:49.420Z,18.40
2019-02-21T16:54:18.981Z,18.77
2019-02-21T16:56:59.006Z,19.63
2019-02-21T16:59:28.642Z,20.00
2019-02-21T17:02:01.062Z,19.87
2019-02-21T17:04:30.405Z,20.70
2019-02-21T17:06:59.811Z,20.17
2019-02-21T17:09:29.162Z,20.87
2019-02-21T17:12:01.439Z,20.00
2019-02-21T17:14:33.632Z,20.47
2019-02-21T17:17:02.989Z,20.60
2019-02-21T17:19:32.362Z,20.73
2019-02-21T17:22:05.441Z,21.40
2019-02-21T17:24:35.787Z,19.47
2019-02-21T17:27:05.092Z,19.70
2019-02-21T17:29:35.537Z,19.93
2019-02-21T17:32:05.739Z,19.73
2019-02-21T17:34:37.196Z,18.60
2019-02-21T17:37:06.880Z,18.80
2019-02-21T17:39:38.807Z,18.83
2019-02-21T17:42:09.271Z,18.13
2019-02-21T17:44:38.518Z,17.93
2019-02-21T17:47:08.076Z,17.77
2019-02-21T17:49:38.401Z,17.50
2019-02-21T17:52:10.446Z,18.40
2019-02-21T17:54:40.994Z,17.50
2019-02-21T17:57:10.526Z,16.53
2019-02-21T17:59:39.828Z,18.17
2019-02-21T18:02:09.951Z,18.43
2019-02-21T18:04:39.525Z,17.43
2019-02-21T18:07:14.251Z,15.23
2019-02-21T18:09:43.552Z,17.93
2019-02-21T18:12:13.533Z,15.57
2019-02-21T18:14:43.260Z,15.53
2019-02-21T18:17:13.879Z,15.67
2019-02-21T18:19:45.745Z,15.23
2019-02-21T18:22:15.356Z,16.20
2019-02-21T18:24:45.474Z,16.03
2019-02-21T18:27:15.310Z,15.27
2019-02-21T18:29:44.587Z,14.13
2019-02-21T18:32:17.056Z,14.33
2019-02-21T18:34:46.770Z,15.77
2019-02-21T18:37:16.265Z,13.80
2019-02-21T18:39:49.684Z,14.07
2019-02-21T18:42:19.218Z,15.80
2019-02-21T18:44:51.684Z,15.03
2019-02-21T18:47:21.082Z,15.10
2019-02-21T18:49:50.812Z,16.87
2019-02-21T18:52:21.808Z,16.07
2019-02-21T18:54:51.176Z,15.90
2019-02-21T18:57:21.157Z,16.80
2019-02-21T18:59:50.413Z,17.37
2019-02-21T19:02:23.676Z,17.30
2019-02-21T19:04:54.666Z,17.50
2019-02-21T19:07:24.214Z,17.30
2019-02-21T19:09:53.696Z,17.67
2019-02-21T19:12:23.205Z,19.17
2019-02-21T19:14:52.908Z,18.63
2019-02-21T19:17:22.743Z,19.17
2019-02-21T19:19:52.178Z,18.47
2019-02-21T19:22:21.465Z,19.50
2019-02-21T19:24:51.038Z,17.80
2019-02-21T19:27:20.298Z,18.70
2019-02-21T19:29:50.654Z,18.77
2019-02-21T19:32:20.060Z,18.30
2019-02-21T19:34:49.949Z,19.07
2019-02-21T19:37:19.796Z,19.37
2019-02-21T19:39:49.224Z,18.17
2019-02-21T19:42:20.027Z,17.57
2019-02-21T19:44:49.430Z,18.23
2019-02-21T19:47:20.521Z,18.80
2019-02-21T19:49:51.769Z,19.30
2019-02-21T19:52:22.081Z,19.37
2019-02-21T19:54:51.488Z,20.27
2019-02-21T19:57:22.796Z,21.20
2019-02-21T19:59:52.493Z,20.23
2019-02-21T20:02:22.251Z,19.80
2019-02-21T20:04:51.823Z,20.50
2019-02-21T20:07:21.262Z,19.47
2019-02-21T20:09:50.937Z,21.03
2019-02-21T20:12:20.406Z,21.17
2019-02-21T20:14:50.008Z,21.53
2019-02-21T20:17:19.570Z,21.90
2019-02-21T20:19:49.032Z,20.80
2019-02-21T20:22:19.286Z,20.13
2019-02-21T20:24:48.716Z,19.67
2019-02-21T20:27:18.433Z,21.23
2019-02-21T20:29:49.820Z,20.47
2019-02-21T20:32:20.506Z,21.27
2019-02-21T20:34:51.713Z,20.43
2019-02-21T20:37:21.288Z,21.40
2019-02-21T20:39:50.773Z,20.83
2019-02-21T20:42:20.459Z,19.77
2019-02-21T20:44:49.862Z,20.60
2019-02-21T20:47:19.571Z,20.43
2019-02-21T20:49:49.109Z,19.63
2019-02-21T20:52:18.629Z,19.83
2019-02-21T20:54:48.123Z,19.53
2019-02-21T20:57:17.714Z,20.67
2019-02-21T20:59:47.002Z,21.83
2019-02-21T21:02:17.480Z,20.23
2019-02-21T21:04:46.812Z,18.73
2019-02-21T21:07:24.739Z,19.70
2019-02-21T21:09:47.272Z,19.50
2019-02-21T21:12:17.421Z,19.27
2019-02-21T21:14:48.859Z,19.27
2019-02-21T21:17:18.149Z,18.97
2019-02-21T21:19:49.562Z,22.43
2019-02-21T21:22:18.484Z,19.20
2019-02-21T21:24:48.693Z,19.57
2019-02-21T21:27:18.068Z,18.73
2019-02-21T21:29:47.450Z,18.47
2019-02-21T21:32:16.866Z,18.27
2019-02-21T21:34:46.167Z,17.07
2019-02-21T21:37:15.589Z,17.30
2019-02-21T21:39:44.910Z,17.10
2019-02-21T21:42:14.337Z,17.23
2019-02-21T21:44:43.727Z,16.17
2019-02-21T21:47:13.154Z,16.30
2019-02-21T21:49:42.532Z,17.20
2019-02-21T21:52:11.972Z,15.20
2019-02-21T21:54:41.269Z,16.07
2019-02-21T21:57:11.145Z,16.60
2019-02-21T21:59:40.449Z,16.53
2019-02-21T22:02:09.711Z,16.50
2019-02-21T22:04:39.355Z,16.33
2019-02-21T22:07:09.292Z,15.37
2019-02-21T22:09:38.750Z,14.83
2019-02-21T22:12:09.300Z,14.90
2019-02-21T22:14:38.850Z,14.87
2019-02-21T22:17:08.110Z,15.33
2019-02-21T22:19:37.750Z,16.43
2019-02-21T22:22:07.116Z,14.27
2019-02-21T22:24:36.431Z,14.73
2019-02-21T22:27:05.727Z,14.67
2019-02-21T22:29:35.217Z,14.07
2019-02-21T22:32:04.668Z,14.50
2019-02-21T22:34:34.085Z,14.07
2019-02-21T22:37:03.575Z,15.07
2019-02-21T22:39:32.874Z,16.20
2019-02-21T22:42:02.266Z,14.73
2019-02-21T22:44:31.582Z,15.93
2019-02-21T22:47:01.116Z,14.23
2019-02-21T22:49:30.548Z,13.40
2019-02-21T22:52:00.054Z,14.90
2019-02-21T22:54:29.458Z,13.70
2019-02-21T22:56:58.709Z,15.23
2019-02-21T22:59:28.225Z,13.80
2019-02-21T23:01:58.690Z,15.47
2019-02-21T23:04:59.265Z,15.17
2019-02-21T23:07:51.425Z,17.53
2019-02-21T23:10:20.838Z,17.77
2019-02-21T23:12:51.237Z,17.77
2019-02-21T23:15:20.594Z,18.30
2019-02-21T23:17:50.057Z,17.87
2019-02-21T23:20:21.914Z,19.40
2019-02-21T23:22:53.459Z,18.73
2019-02-21T23:25:22.932Z,19.47
2019-02-21T23:27:52.197Z,18.83
2019-02-21T23:30:21.726Z,20.07
2019-02-21T23:32:51.247Z,18.50
2019-02-21T23:35:21.302Z,19.23
2019-02-21T23:37:50.888Z,20.80
2019-02-21T23:40:21.918Z,21.53
2019-02-21T23:42:51.301Z,21.33
2019-02-21T23:45:20.675Z,21.97
2019-02-21T23:47:50.258Z,20.73
2019-02-21T23:50:19.521Z,22.20
2019-02-21T23:52:48.901Z,21.90
2019-02-21T23:55:18.656Z,20.77
2019-02-21T23:57:47.976Z,21.67
